sensor_id;sensor_type;location;lat;lon;timestamp;temperature;humidity
18126;DHT22;53956;52.442;13.284;2022-10-17T00:00:18;17.80;99.30
18126;DHT22;53956;52.442;13.284;2022-10-17T00:02:45;17.70;99.20
18126;DHT22;53956;52.442;13.284;2022-10-17T00:05:11;17.80;99.30
18126;DHT22;53956;52.442;13.284;2022-10-17T00:07:38;17.90;99.40
18126;DHT22;53956;52.442;13.284;2022-10-17T00:10:06;18.00;99.10
18126;DHT22;53956;52.442;13.284;2022-10-17T00:12:33;17.80;99.20
18126;DHT22;53956;52.442;13.284;2022-10-17T00:15:00;17.60;99.90
18126;DHT22;53956;52.442;13.284;2022-10-17T00:17:28;17.70;99.90
18126;DHT22;53956;52.442;13.284;2022-10-17T00:19:57;17.70;99.90
18126;DHT22;53956;52.442;13.284;2022-10-17T00:22:24;17.80;99.90
18126;DHT22;53956;52.442;13.284;2022-10-17T00:24:51;18.00;99.90
18126;DHT22;53956;52.442;13.284;2022-10-17T00:27:17;18.00;99.90
18126;DHT22;53956;52.442;13.284;2022-10-17T00:29:47;18.00;99.90
18126;DHT22;53956;52.442;13.284;2022-10-17T00:32:14;18.00;99.90
18126;DHT22;53956;52.442;13.284;2022-10-17T00:34:42;17.90;99.90
18126;DHT22;53956;52.442;13.284;2022-10-17T00:37:09;18.00;99.90
18126;DHT22;53956;52.442;13.284;2022-10-17T00:39:35;18.00;99.90
18126;DHT22;53956;52.442;13.284;2022-10-17T00:42:03;18.00;99.90
18126;DHT22;53956;52.442;13.284;2022-10-17T00:44:59;17.80;99.90
18126;DHT22;53956;52.442;13.284;2022-10-17T00:47:26;17.90;99.90
18126;DHT22;53956;52.442;13.284;2022-10-17T00:49:55;17.70;99.90
18126;DHT22;53956;52.442;13.284;2022-10-17T00:52:27;17.60;99.90
18126;DHT22;53956;52.442;13.284;2022-10-17T00:54:59;17.60;99.90
18126;DHT22;53956;52.442;13.284;2022-10-17T00:57:29;17.70;99.90
18126;DHT22;53956;52.442;13.284;2022-10-17T00:59:57;17.60;99.90
18126;DHT22;53956;52.442;13.284;2022-10-17T01:02:24;17.60;99.90
18126;DHT22;53956;52.442;13.284;2022-10-17T01:04:52;17.80;99.90
18126;DHT22;53956;52.442;13.284;2022-10-17T01:07:21;17.90;99.90
18126;DHT22;53956;52.442;13.284;2022-10-17T01:09:49;17.90;99.90
18126;DHT22;53956;52.442;13.284;2022-10-17T01:12:19;17.70;99.90
18126;DHT22;53956;52.442;13.284;2022-10-17T01:14:57;17.40;99.90
18126;DHT22;53956;52.442;13.284;2022-10-17T01:17:33;17.40;99.90
18126;DHT22;53956;52.442;13.284;2022-10-17T01:23:53;17.40;99.90
18126;DHT22;53956;52.442;13.284;2022-10-17T01:26:36;17.60;99.90
18126;DHT22;53956;52.442;13.284;2022-10-17T01:29:32;17.50;99.90
18126;DHT22;53956;52.442;13.284;2022-10-17T01:32:04;17.40;99.90
18126;DHT22;53956;52.442;13.284;2022-10-17T01:34:39;17.50;99.90
18126;DHT22;53956;52.442;13.284;2022-10-17T01:37:13;17.50;99.90
18126;DHT22;53956;52.442;13.284;2022-10-17T01:39:46;17.20;99.90
18126;DHT22;53956;52.442;13.284;2022-10-17T01:42:16;17.20;99.90
18126;DHT22;53956;52.442;13.284;2022-10-17T01:44:48;17.40;99.90
18126;DHT22;53956;52.442;13.284;2022-10-17T01:47:23;17.40;99.90
18126;DHT22;53956;52.442;13.284;2022-10-17T01:49:53;17.20;99.90
18126;DHT22;53956;52.442;13.284;2022-10-17T01:52:25;17.40;99.90
18126;DHT22;53956;52.442;13.284;2022-10-17T01:54:55;17.40;99.90
18126;DHT22;53956;52.442;13.284;2022-10-17T01:57:29;17.40;99.90
18126;DHT22;53956;52.442;13.284;2022-10-17T01:59:56;17.40;99.90
18126;DHT22;53956;52.442;13.284;2022-10-17T02:02:25;17.30;99.90
18126;DHT22;53956;52.442;13.284;2022-10-17T02:04:56;17.40;99.90
18126;DHT22;53956;52.442;13.284;2022-10-17T02:07:22;17.40;99.90
18126;DHT22;53956;52.442;13.284;2022-10-17T02:09:49;17.30;99.90
18126;DHT22;53956;52.442;13.284;2022-10-17T02:12:34;17.20;99.90
18126;DHT22;53956;52.442;13.284;2022-10-17T02:18:12;17.40;99.90
18126;DHT22;53956;52.442;13.284;2022-10-17T02:20:48;17.40;99.90
18126;DHT22;53956;52.442;13.284;2022-10-17T02:23:22;17.50;99.90
18126;DHT22;53956;52.442;13.284;2022-10-17T02:25:54;17.40;99.90
18126;DHT22;53956;52.442;13.284;2022-10-17T02:28:29;17.30;99.90
18126;DHT22;53956;52.442;13.284;2022-10-17T02:31:01;17.40;99.90
18126;DHT22;53956;52.442;13.284;2022-10-17T02:33:32;17.50;99.90
18126;DHT22;53956;52.442;13.284;2022-10-17T02:36:05;17.40;99.90
18126;DHT22;53956;52.442;13.284;2022-10-17T02:38:33;17.40;99.90
18126;DHT22;53956;52.442;13.284;2022-10-17T02:41:00;17.40;99.90
18126;DHT22;53956;52.442;13.284;2022-10-17T02:43:28;17.50;99.90
18126;DHT22;53956;52.442;13.284;2022-10-17T02:45:56;17.40;99.90
18126;DHT22;53956;52.442;13.284;2022-10-17T02:48:26;17.40;99.90
18126;DHT22;53956;52.442;13.284;2022-10-17T02:51:03;17.40;99.90
18126;DHT22;53956;52.442;13.284;2022-10-17T02:53:35;17.40;99.90
18126;DHT22;53956;52.442;13.284;2022-10-17T02:56:08;17.30;99.90
18126;DHT22;53956;52.442;13.284;2022-10-17T02:58:37;17.50;99.90
18126;DHT22;53956;52.442;13.284;2022-10-17T03:01:05;17.40;99.90
18126;DHT22;53956;52.442;13.284;2022-10-17T03:03:32;17.50;99.90
18126;DHT22;53956;52.442;13.284;2022-10-17T03:06:01;17.60;99.90
18126;DHT22;53956;52.442;13.284;2022-10-17T03:08:28;17.30;99.90
18126;DHT22;53956;52.442;13.284;2022-10-17T03:10:55;17.40;99.90
18126;DHT22;53956;52.442;13.284;2022-10-17T03:13:22;17.40;99.90
18126;DHT22;53956;52.442;13.284;2022-10-17T03:15:49;17.60;99.90
18126;DHT22;53956;52.442;13.284;2022-10-17T03:18:16;17.50;99.90
18126;DHT22;53956;52.442;13.284;2022-10-17T03:20:44;17.50;99.90
18126;DHT22;53956;52.442;13.284;2022-10-17T03:23:12;17.50;99.90
18126;DHT22;53956;52.442;13.284;2022-10-17T03:25:40;17.60;99.90
18126;DHT22;53956;52.442;13.284;2022-10-17T03:28:08;17.70;99.90
18126;DHT22;53956;52.442;13.284;2022-10-17T03:30:37;17.50;99.90
18126;DHT22;53956;52.442;13.284;2022-10-17T03:33:04;17.60;99.90
18126;DHT22;53956;52.442;13.284;2022-10-17T03:35:31;17.70;99.90
18126;DHT22;53956;52.442;13.284;2022-10-17T03:37:58;17.80;99.90
18126;DHT22;53956;52.442;13.284;2022-10-17T03:40:27;17.80;99.90
18126;DHT22;53956;52.442;13.284;2022-10-17T03:42:54;17.80;99.90
18126;DHT22;53956;52.442;13.284;2022-10-17T03:45:21;17.90;99.90
18126;DHT22;53956;52.442;13.284;2022-10-17T03:47:49;17.90;99.90
18126;DHT22;53956;52.442;13.284;2022-10-17T03:50:16;17.60;99.90
18126;DHT22;53956;52.442;13.284;2022-10-17T03:52:45;17.60;99.90
18126;DHT22;53956;52.442;13.284;2022-10-17T03:55:12;17.60;99.90
18126;DHT22;53956;52.442;13.284;2022-10-17T03:57:40;17.70;99.90
18126;DHT22;53956;52.442;13.284;2022-10-17T04:00:08;17.60;99.90
18126;DHT22;53956;52.442;13.284;2022-10-17T04:02:41;17.70;99.90
18126;DHT22;53956;52.442;13.284;2022-10-17T04:05:16;17.50;99.90
18126;DHT22;53956;52.442;13.284;2022-10-17T04:07:42;17.60;99.90
18126;DHT22;53956;52.442;13.284;2022-10-17T04:10:10;17.60;99.90
18126;DHT22;53956;52.442;13.284;2022-10-17T04:12:37;17.70;99.90
18126;DHT22;53956;52.442;13.284;2022-10-17T04:15:07;17.70;99.90
18126;DHT22;53956;52.442;13.284;2022-10-17T04:17:35;17.50;99.90
18126;DHT22;53956;52.442;13.284;2022-10-17T04:20:02;17.60;99.90
18126;DHT22;53956;52.442;13.284;2022-10-17T04:22:29;17.50;99.90
18126;DHT22;53956;52.442;13.284;2022-10-17T04:24:56;17.40;99.90
18126;DHT22;53956;52.442;13.284;2022-10-17T04:27:26;17.50;99.90
18126;DHT22;53956;52.442;13.284;2022-10-17T04:29:53;17.60;99.90
18126;DHT22;53956;52.442;13.284;2022-10-17T04:32:24;17.50;99.90
18126;DHT22;53956;52.442;13.284;2022-10-17T04:34:59;17.60;99.90
18126;DHT22;53956;52.442;13.284;2022-10-17T04:37:28;17.50;99.90
18126;DHT22;53956;52.442;13.284;2022-10-17T04:39:55;17.50;99.90
18126;DHT22;53956;52.442;13.284;2022-10-17T04:42:22;17.50;99.90
18126;DHT22;53956;52.442;13.284;2022-10-17T04:44:51;17.50;99.90
18126;DHT22;53956;52.442;13.284;2022-10-17T04:47:18;17.60;99.90
18126;DHT22;53956;52.442;13.284;2022-10-17T04:49:46;17.60;99.90
18126;DHT22;53956;52.442;13.284;2022-10-17T04:52:14;17.70;99.90
18126;DHT22;53956;52.442;13.284;2022-10-17T04:54:48;17.40;99.90
18126;DHT22;53956;52.442;13.284;2022-10-17T04:57:16;17.40;99.90
18126;DHT22;53956;52.442;13.284;2022-10-17T04:59:52;17.30;99.90
18126;DHT22;53956;52.442;13.284;2022-10-17T05:02:41;17.40;99.90
18126;DHT22;53956;52.442;13.284;2022-10-17T05:05:09;17.30;99.90
18126;DHT22;53956;52.442;13.284;2022-10-17T05:07:38;17.20;99.90
18126;DHT22;53956;52.442;13.284;2022-10-17T05:10:11;17.10;99.90
18126;DHT22;53956;52.442;13.284;2022-10-17T05:12:40;17.10;99.90
18126;DHT22;53956;52.442;13.284;2022-10-17T05:15:07;17.20;99.90
18126;DHT22;53956;52.442;13.284;2022-10-17T05:17:34;16.90;99.90
18126;DHT22;53956;52.442;13.284;2022-10-17T05:20:01;16.90;99.90
18126;DHT22;53956;52.442;13.284;2022-10-17T05:22:31;16.80;99.90
18126;DHT22;53956;52.442;13.284;2022-10-17T05:24:58;16.90;99.90
18126;DHT22;53956;52.442;13.284;2022-10-17T05:27:25;16.90;99.90
18126;DHT22;53956;52.442;13.284;2022-10-17T05:29:52;16.90;99.90
18126;DHT22;53956;52.442;13.284;2022-10-17T05:32:24;16.90;99.90
18126;DHT22;53956;52.442;13.284;2022-10-17T05:34:51;17.00;99.90
18126;DHT22;53956;52.442;13.284;2022-10-17T05:37:19;16.80;99.90
18126;DHT22;53956;52.442;13.284;2022-10-17T05:39:51;16.90;99.90
18126;DHT22;53956;52.442;13.284;2022-10-17T05:42:19;16.90;99.90
18126;DHT22;53956;52.442;13.284;2022-10-17T05:44:46;17.10;99.90
18126;DHT22;53956;52.442;13.284;2022-10-17T05:47:15;17.20;99.90
18126;DHT22;53956;52.442;13.284;2022-10-17T05:49:42;17.10;99.90
18126;DHT22;53956;52.442;13.284;2022-10-17T05:52:09;17.10;99.90
18126;DHT22;53956;52.442;13.284;2022-10-17T05:54:51;17.20;99.90
18126;DHT22;53956;52.442;13.284;2022-10-17T05:57:18;17.00;99.90
18126;DHT22;53956;52.442;13.284;2022-10-17T05:59:46;17.10;99.90
18126;DHT22;53956;52.442;13.284;2022-10-17T06:02:17;17.40;99.90
18126;DHT22;53956;52.442;13.284;2022-10-17T06:04:44;17.30;99.90
18126;DHT22;53956;52.442;13.284;2022-10-17T06:07:13;17.30;99.90
18126;DHT22;53956;52.442;13.284;2022-10-17T06:09:41;17.40;99.90
18126;DHT22;53956;52.442;13.284;2022-10-17T06:12:11;17.50;99.90
18126;DHT22;53956;52.442;13.284;2022-10-17T06:14:37;17.50;99.90
18126;DHT22;53956;52.442;13.284;2022-10-17T06:17:07;17.50;99.90
18126;DHT22;53956;52.442;13.284;2022-10-17T06:19:33;17.50;99.90
18126;DHT22;53956;52.442;13.284;2022-10-17T06:22:01;17.70;99.90
18126;DHT22;53956;52.442;13.284;2022-10-17T06:24:29;17.60;99.90
18126;DHT22;53956;52.442;13.284;2022-10-17T06:26:55;17.50;99.90
18126;DHT22;53956;52.442;13.284;2022-10-17T06:29:24;17.50;99.90
18126;DHT22;53956;52.442;13.284;2022-10-17T06:31:51;17.70;99.90
18126;DHT22;53956;52.442;13.284;2022-10-17T06:34:19;17.60;99.90
18126;DHT22;53956;52.442;13.284;2022-10-17T06:36:46;17.70;99.90
18126;DHT22;53956;52.442;13.284;2022-10-17T06:39:13;17.90;99.90
18126;DHT22;53956;52.442;13.284;2022-10-17T06:41:51;17.90;99.90
18126;DHT22;53956;52.442;13.284;2022-10-17T06:44:18;18.20;99.90
18126;DHT22;53956;52.442;13.284;2022-10-17T06:47:08;18.80;99.90
18126;DHT22;53956;52.442;13.284;2022-10-17T06:49:35;19.10;99.90
18126;DHT22;53956;52.442;13.284;2022-10-17T06:52:20;19.20;99.90
18126;DHT22;53956;52.442;13.284;2022-10-17T06:55:07;19.30;99.90
18126;DHT22;53956;52.442;13.284;2022-10-17T06:57:49;19.20;99.90
18126;DHT22;53956;52.442;13.284;2022-10-17T07:00:41;19.40;99.90
18126;DHT22;53956;52.442;13.284;2022-10-17T07:03:11;19.50;99.90
18126;DHT22;53956;52.442;13.284;2022-10-17T07:05:38;19.80;99.90
18126;DHT22;53956;52.442;13.284;2022-10-17T07:08:05;19.80;99.90
18126;DHT22;53956;52.442;13.284;2022-10-17T07:10:36;20.30;99.90
18126;DHT22;53956;52.442;13.284;2022-10-17T07:13:05;20.60;99.90
18126;DHT22;53956;52.442;13.284;2022-10-17T07:15:33;20.90;99.90
18126;DHT22;53956;52.442;13.284;2022-10-17T07:18:00;20.50;99.90
18126;DHT22;53956;52.442;13.284;2022-10-17T07:20:29;20.00;99.90
18126;DHT22;53956;52.442;13.284;2022-10-17T07:22:56;19.90;99.90
18126;DHT22;53956;52.442;13.284;2022-10-17T07:25:23;19.70;99.90
18126;DHT22;53956;52.442;13.284;2022-10-17T07:27:54;19.70;99.90
18126;DHT22;53956;52.442;13.284;2022-10-17T07:30:21;19.40;99.90
18126;DHT22;53956;52.442;13.284;2022-10-17T07:32:57;19.60;99.90
18126;DHT22;53956;52.442;13.284;2022-10-17T07:35:24;19.60;99.90
18126;DHT22;53956;52.442;13.284;2022-10-17T07:37:52;19.60;99.90
18126;DHT22;53956;52.442;13.284;2022-10-17T07:40:20;19.50;99.90
18126;DHT22;53956;52.442;13.284;2022-10-17T07:42:46;19.50;99.90
18126;DHT22;53956;52.442;13.284;2022-10-17T07:45:13;19.70;99.90
18126;DHT22;53956;52.442;13.284;2022-10-17T07:47:41;19.80;99.90
18126;DHT22;53956;52.442;13.284;2022-10-17T07:50:09;19.80;99.90
18126;DHT22;53956;52.442;13.284;2022-10-17T07:52:36;19.60;99.90
18126;DHT22;53956;52.442;13.284;2022-10-17T07:55:05;19.30;99.90
18126;DHT22;53956;52.442;13.284;2022-10-17T07:57:32;19.50;99.90
18126;DHT22;53956;52.442;13.284;2022-10-17T07:59:58;19.50;99.90
18126;DHT22;53956;52.442;13.284;2022-10-17T08:02:26;19.60;99.90
18126;DHT22;53956;52.442;13.284;2022-10-17T08:04:53;19.60;99.90
18126;DHT22;53956;52.442;13.284;2022-10-17T08:07:20;19.60;99.90
18126;DHT22;53956;52.442;13.284;2022-10-17T08:09:47;19.60;99.90
18126;DHT22;53956;52.442;13.284;2022-10-17T08:12:15;19.70;99.90
18126;DHT22;53956;52.442;13.284;2022-10-17T08:14:42;19.60;99.90
18126;DHT22;53956;52.442;13.284;2022-10-17T08:17:09;19.70;99.90
18126;DHT22;53956;52.442;13.284;2022-10-17T08:19:37;19.80;99.90
18126;DHT22;53956;52.442;13.284;2022-10-17T08:22:04;19.80;99.90
18126;DHT22;53956;52.442;13.284;2022-10-17T08:24:31;19.80;99.90
18126;DHT22;53956;52.442;13.284;2022-10-17T08:26:58;19.90;99.90
18126;DHT22;53956;52.442;13.284;2022-10-17T08:29:26;19.90;99.90
18126;DHT22;53956;52.442;13.284;2022-10-17T08:31:53;19.90;99.90
18126;DHT22;53956;52.442;13.284;2022-10-17T08:34:19;19.90;99.90
18126;DHT22;53956;52.442;13.284;2022-10-17T08:36:46;19.90;99.90
18126;DHT22;53956;52.442;13.284;2022-10-17T08:39:13;20.00;99.90
18126;DHT22;53956;52.442;13.284;2022-10-17T08:41:48;19.90;99.90
18126;DHT22;53956;52.442;13.284;2022-10-17T08:44:28;19.90;99.90
18126;DHT22;53956;52.442;13.284;2022-10-17T08:46:59;19.90;99.90
18126;DHT22;53956;52.442;13.284;2022-10-17T08:49:37;19.90;99.90
18126;DHT22;53956;52.442;13.284;2022-10-17T08:52:12;19.90;99.90
18126;DHT22;53956;52.442;13.284;2022-10-17T08:54:41;20.00;99.90
18126;DHT22;53956;52.442;13.284;2022-10-17T08:57:11;20.00;99.90
18126;DHT22;53956;52.442;13.284;2022-10-17T08:59:40;20.10;99.90
18126;DHT22;53956;52.442;13.284;2022-10-17T09:02:21;20.10;99.90
18126;DHT22;53956;52.442;13.284;2022-10-17T09:05:02;20.10;99.90
18126;DHT22;53956;52.442;13.284;2022-10-17T09:07:39;20.30;99.90
18126;DHT22;53956;52.442;13.284;2022-10-17T09:10:14;20.30;99.90
18126;DHT22;53956;52.442;13.284;2022-10-17T09:12:49;20.40;99.90
18126;DHT22;53956;52.442;13.284;2022-10-17T09:15:36;20.40;99.90
18126;DHT22;53956;52.442;13.284;2022-10-17T09:18:10;20.30;99.90
18126;DHT22;53956;52.442;13.284;2022-10-17T09:20:41;20.40;99.90
18126;DHT22;53956;52.442;13.284;2022-10-17T09:23:11;20.40;99.90
18126;DHT22;53956;52.442;13.284;2022-10-17T09:25:42;20.60;99.90
18126;DHT22;53956;52.442;13.284;2022-10-17T09:28:13;20.50;99.90
18126;DHT22;53956;52.442;13.284;2022-10-17T09:30:45;20.60;99.90
18126;DHT22;53956;52.442;13.284;2022-10-17T09:33:14;20.60;99.90
18126;DHT22;53956;52.442;13.284;2022-10-17T09:35:41;20.60;99.90
18126;DHT22;53956;52.442;13.284;2022-10-17T09:38:15;20.70;99.90
18126;DHT22;53956;52.442;13.284;2022-10-17T09:40:43;20.70;99.90
18126;DHT22;53956;52.442;13.284;2022-10-17T09:43:12;20.80;99.90
18126;DHT22;53956;52.442;13.284;2022-10-17T09:45:44;20.90;99.90
18126;DHT22;53956;52.442;13.284;2022-10-17T09:48:19;20.90;99.90
18126;DHT22;53956;52.442;13.284;2022-10-17T09:50:50;20.90;99.90
18126;DHT22;53956;52.442;13.284;2022-10-17T09:53:21;21.00;99.90
18126;DHT22;53956;52.442;13.284;2022-10-17T09:55:52;21.00;99.90
18126;DHT22;53956;52.442;13.284;2022-10-17T09:58:20;21.10;99.90
18126;DHT22;53956;52.442;13.284;2022-10-17T10:00:49;21.20;99.40
18126;DHT22;53956;52.442;13.284;2022-10-17T10:03:17;21.40;98.90
18126;DHT22;53956;52.442;13.284;2022-10-17T10:06:00;21.40;99.00
18126;DHT22;53956;52.442;13.284;2022-10-17T10:08:28;21.50;98.20
18126;DHT22;53956;52.442;13.284;2022-10-17T10:11:00;21.50;97.80
18126;DHT22;53956;52.442;13.284;2022-10-17T10:13:30;21.60;97.70
18126;DHT22;53956;52.442;13.284;2022-10-17T10:16:16;21.50;97.80
18126;DHT22;53956;52.442;13.284;2022-10-17T10:18:43;21.60;97.80
18126;DHT22;53956;52.442;13.284;2022-10-17T10:21:12;21.80;96.90
18126;DHT22;53956;52.442;13.284;2022-10-17T10:23:40;21.80;96.50
18126;DHT22;53956;52.442;13.284;2022-10-17T10:26:24;21.80;96.50
18126;DHT22;53956;52.442;13.284;2022-10-17T10:28:57;21.70;96.60
18126;DHT22;53956;52.442;13.284;2022-10-17T10:31:29;22.00;96.60
18126;DHT22;53956;52.442;13.284;2022-10-17T10:33:56;22.00;94.80
18126;DHT22;53956;52.442;13.284;2022-10-17T10:36:24;22.10;95.60
18126;DHT22;53956;52.442;13.284;2022-10-17T10:38:54;22.20;95.50
18126;DHT22;53956;52.442;13.284;2022-10-17T10:41:22;22.20;95.10
18126;DHT22;53956;52.442;13.284;2022-10-17T10:43:53;22.30;94.70
18126;DHT22;53956;52.442;13.284;2022-10-17T10:46:24;22.30;93.80
18126;DHT22;53956;52.442;13.284;2022-10-17T10:48:55;22.50;93.50
18126;DHT22;53956;52.442;13.284;2022-10-17T10:51:28;22.50;92.90
18126;DHT22;53956;52.442;13.284;2022-10-17T10:54:00;22.50;92.90
18126;DHT22;53956;52.442;13.284;2022-10-17T10:56:30;22.50;92.60
18126;DHT22;53956;52.442;13.284;2022-10-17T10:59:03;22.60;91.90
18126;DHT22;53956;52.442;13.284;2022-10-17T11:01:34;22.60;91.40
18126;DHT22;53956;52.442;13.284;2022-10-17T11:04:22;22.60;92.10
18126;DHT22;53956;52.442;13.284;2022-10-17T11:06:54;22.60;92.00
18126;DHT22;53956;52.442;13.284;2022-10-17T11:09:30;22.80;91.90
18126;DHT22;53956;52.442;13.284;2022-10-17T11:12:01;22.90;91.70
18126;DHT22;53956;52.442;13.284;2022-10-17T11:14:42;22.80;90.90
18126;DHT22;53956;52.442;13.284;2022-10-17T11:17:16;22.80;90.00
18126;DHT22;53956;52.442;13.284;2022-10-17T11:19:49;22.90;90.70
18126;DHT22;53956;52.442;13.284;2022-10-17T11:22:22;22.90;90.90
18126;DHT22;53956;52.442;13.284;2022-10-17T11:24:53;23.00;90.60
18126;DHT22;53956;52.442;13.284;2022-10-17T11:27:22;23.00;89.20
18126;DHT22;53956;52.442;13.284;2022-10-17T11:29:50;23.00;89.20
18126;DHT22;53956;52.442;13.284;2022-10-17T11:32:20;23.10;90.00
18126;DHT22;53956;52.442;13.284;2022-10-17T11:34:51;23.10;90.50
18126;DHT22;53956;52.442;13.284;2022-10-17T11:37:23;23.00;90.30
18126;DHT22;53956;52.442;13.284;2022-10-17T11:39:53;23.10;90.90
18126;DHT22;53956;52.442;13.284;2022-10-17T11:42:24;23.20;90.00
18126;DHT22;53956;52.442;13.284;2022-10-17T11:44:58;23.30;90.60
18126;DHT22;53956;52.442;13.284;2022-10-17T11:47:37;23.10;90.60
18126;DHT22;53956;52.442;13.284;2022-10-17T11:50:15;23.00;90.30
18126;DHT22;53956;52.442;13.284;2022-10-17T11:52:46;23.10;90.30
18126;DHT22;53956;52.442;13.284;2022-10-17T11:55:18;23.00;90.30
18126;DHT22;53956;52.442;13.284;2022-10-17T12:00:50;23.20;88.70
18126;DHT22;53956;52.442;13.284;2022-10-17T12:03:38;23.30;89.00
18126;DHT22;53956;52.442;13.284;2022-10-17T12:06:14;23.30;89.10
18126;DHT22;53956;52.442;13.284;2022-10-17T12:08:48;23.40;89.40
18126;DHT22;53956;52.442;13.284;2022-10-17T12:11:28;23.40;89.80
18126;DHT22;53956;52.442;13.284;2022-10-17T12:13:59;23.30;88.30
18126;DHT22;53956;52.442;13.284;2022-10-17T12:16:45;23.50;88.40
18126;DHT22;53956;52.442;13.284;2022-10-17T12:19:34;23.50;88.60
18126;DHT22;53956;52.442;13.284;2022-10-17T12:22:18;23.70;86.10
18126;DHT22;53956;52.442;13.284;2022-10-17T12:24:57;23.60;88.70
18126;DHT22;53956;52.442;13.284;2022-10-17T12:27:41;23.60;88.90
18126;DHT22;53956;52.442;13.284;2022-10-17T12:30:31;23.60;86.70
18126;DHT22;53956;52.442;13.284;2022-10-17T12:33:02;23.50;88.20
18126;DHT22;53956;52.442;13.284;2022-10-17T12:35:31;23.50;88.10
18126;DHT22;53956;52.442;13.284;2022-10-17T12:38:27;23.60;87.50
18126;DHT22;53956;52.442;13.284;2022-10-17T12:40:56;23.60;88.00
18126;DHT22;53956;52.442;13.284;2022-10-17T12:43:50;23.60;85.70
18126;DHT22;53956;52.442;13.284;2022-10-17T12:46:43;23.60;87.50
18126;DHT22;53956;52.442;13.284;2022-10-17T12:49:21;23.70;86.40
18126;DHT22;53956;52.442;13.284;2022-10-17T12:55:05;23.60;88.60
18126;DHT22;53956;52.442;13.284;2022-10-17T12:57:35;23.60;85.80
18126;DHT22;53956;52.442;13.284;2022-10-17T13:00:15;23.60;87.30
18126;DHT22;53956;52.442;13.284;2022-10-17T13:02:43;23.60;87.70
18126;DHT22;53956;52.442;13.284;2022-10-17T13:05:14;23.60;85.90
18126;DHT22;53956;52.442;13.284;2022-10-17T13:07:43;23.70;86.20
18126;DHT22;53956;52.442;13.284;2022-10-17T13:10:21;23.70;85.90
18126;DHT22;53956;52.442;13.284;2022-10-17T13:12:49;23.60;87.60
18126;DHT22;53956;52.442;13.284;2022-10-17T13:15:18;23.60;87.70
18126;DHT22;53956;52.442;13.284;2022-10-17T13:17:54;23.60;85.70
18126;DHT22;53956;52.442;13.284;2022-10-17T13:20:23;23.60;87.70
18126;DHT22;53956;52.442;13.284;2022-10-17T13:22:53;23.60;87.90
18126;DHT22;53956;52.442;13.284;2022-10-17T13:25:22;23.60;87.20
18126;DHT22;53956;52.442;13.284;2022-10-17T13:27:49;23.60;87.70
18126;DHT22;53956;52.442;13.284;2022-10-17T13:30:24;23.60;87.50
18126;DHT22;53956;52.442;13.284;2022-10-17T13:32:52;23.60;87.10
18126;DHT22;53956;52.442;13.284;2022-10-17T13:35:24;23.50;87.30
18126;DHT22;53956;52.442;13.284;2022-10-17T13:37:52;23.50;87.00
18126;DHT22;53956;52.442;13.284;2022-10-17T13:40:23;23.50;86.90
18126;DHT22;53956;52.442;13.284;2022-10-17T13:42:51;23.60;86.80
18126;DHT22;53956;52.442;13.284;2022-10-17T13:45:22;23.60;87.40
18126;DHT22;53956;52.442;13.284;2022-10-17T13:47:50;23.60;85.30
18126;DHT22;53956;52.442;13.284;2022-10-17T13:50:23;23.60;86.90
18126;DHT22;53956;52.442;13.284;2022-10-17T13:53:05;23.60;86.80
18126;DHT22;53956;52.442;13.284;2022-10-17T13:55:33;23.70;85.40
18126;DHT22;53956;52.442;13.284;2022-10-17T13:58:14;23.60;86.80
18126;DHT22;53956;52.442;13.284;2022-10-17T14:00:42;23.70;85.50
18126;DHT22;53956;52.442;13.284;2022-10-17T14:03:09;23.70;86.00
18126;DHT22;53956;52.442;13.284;2022-10-17T14:05:58;23.80;85.70
18126;DHT22;53956;52.442;13.284;2022-10-17T14:08:26;23.70;85.70
18126;DHT22;53956;52.442;13.284;2022-10-17T14:10:54;23.70;85.50
18126;DHT22;53956;52.442;13.284;2022-10-17T14:13:22;23.80;86.10
18126;DHT22;53956;52.442;13.284;2022-10-17T14:15:50;23.80;85.80
18126;DHT22;53956;52.442;13.284;2022-10-17T14:18:20;23.80;86.10
18126;DHT22;53956;52.442;13.284;2022-10-17T14:20:48;23.80;85.50
18126;DHT22;53956;52.442;13.284;2022-10-17T14:23:30;23.80;85.70
18126;DHT22;53956;52.442;13.284;2022-10-17T14:26:10;23.70;85.90
18126;DHT22;53956;52.442;13.284;2022-10-17T14:28:38;23.80;86.10
18126;DHT22;53956;52.442;13.284;2022-10-17T14:31:29;23.70;86.20
18126;DHT22;53956;52.442;13.284;2022-10-17T14:33:57;23.70;85.90
18126;DHT22;53956;52.442;13.284;2022-10-17T14:36:37;23.80;86.30
18126;DHT22;53956;52.442;13.284;2022-10-17T14:39:07;23.80;86.00
18126;DHT22;53956;52.442;13.284;2022-10-17T14:41:44;23.80;86.30
18126;DHT22;53956;52.442;13.284;2022-10-17T14:44:22;23.80;86.70
18126;DHT22;53956;52.442;13.284;2022-10-17T14:46:53;23.80;86.60
18126;DHT22;53956;52.442;13.284;2022-10-17T14:49:26;23.70;86.80
18126;DHT22;53956;52.442;13.284;2022-10-17T14:54:51;23.60;86.80
18126;DHT22;53956;52.442;13.284;2022-10-17T14:57:23;23.60;87.40
18126;DHT22;53956;52.442;13.284;2022-10-17T14:59:50;23.60;87.20
18126;DHT22;53956;52.442;13.284;2022-10-17T15:02:16;23.60;88.90
18126;DHT22;53956;52.442;13.284;2022-10-17T15:04:43;23.60;89.00
18126;DHT22;53956;52.442;13.284;2022-10-17T15:07:13;23.60;89.40
18126;DHT22;53956;52.442;13.284;2022-10-17T15:09:40;23.50;89.20
18126;DHT22;53956;52.442;13.284;2022-10-17T15:12:12;23.60;89.50
18126;DHT22;53956;52.442;13.284;2022-10-17T15:14:40;23.40;89.50
18126;DHT22;53956;52.442;13.284;2022-10-17T15:17:11;23.50;89.50
18126;DHT22;53956;52.442;13.284;2022-10-17T15:19:38;23.50;89.80
18126;DHT22;53956;52.442;13.284;2022-10-17T15:22:05;23.50;89.90
18126;DHT22;53956;52.442;13.284;2022-10-17T15:24:31;23.50;90.30
18126;DHT22;53956;52.442;13.284;2022-10-17T15:26:58;23.50;90.10
18126;DHT22;53956;52.442;13.284;2022-10-17T15:29:24;23.50;90.30
18126;DHT22;53956;52.442;13.284;2022-10-17T15:31:52;23.50;90.10
18126;DHT22;53956;52.442;13.284;2022-10-17T15:34:19;23.40;90.20
18126;DHT22;53956;52.442;13.284;2022-10-17T15:36:48;23.30;90.90
18126;DHT22;53956;52.442;13.284;2022-10-17T15:39:15;23.30;90.40
18126;DHT22;53956;52.442;13.284;2022-10-17T15:41:41;23.40;90.40
18126;DHT22;53956;52.442;13.284;2022-10-17T15:44:09;23.50;90.30
18126;DHT22;53956;52.442;13.284;2022-10-17T15:46:38;23.30;90.20
18126;DHT22;53956;52.442;13.284;2022-10-17T15:49:10;23.30;90.50
18126;DHT22;53956;52.442;13.284;2022-10-17T15:51:37;23.20;90.90
18126;DHT22;53956;52.442;13.284;2022-10-17T15:54:04;23.30;90.50